Time;durP1;ratioP1;P1;durP2;ratioP2;P2;SDS_P1;SDS_P2;PMS_P1;PMS_P2;Temp;Humidity;BMP_temperature;BMP_pressure;BME280_temperature;BME280_humidity;BME280_pressure;Samples;Min_cycle;Max_cycle;Signal;HPM_P1;HPM_P2
2022/03/27 00:00:51;;;;;;;19.20;12.00;;;;;;;8.17;75.66;99981.34;4188520;28;20040;-71
2022/03/27 00:02:51;;;;;;;18.85;10.95;;;;;;;8.14;75.48;99973.72;4192764;28;20357;-71
2022/03/27 00:04:52;;;;;;;18.75;11.88;;;;;;;8.14;75.36;99971.78;4188961;28;20159;-71
2022/03/27 00:06:52;;;;;;;17.75;11.27;;;;;;;8.15;76.00;99972.59;4188301;28;20127;-71
2022/03/27 00:08:53;;;;;;;17.45;11.77;;;;;;;8.16;76.29;99975.00;4189825;28;20449;-71
2022/03/27 00:13:13;;;;;;;20.17;11.75;;;;;;;8.21;77.40;99976.81;4188336;28;20502;-71
2022/03/27 00:15:13;;;;;;;17.73;11.68;;;;;;;8.26;77.14;99975.81;4187275;28;20127;-71
2022/03/27 00:17:13;;;;;;;16.38;10.70;;;;;;;8.27;77.07;99966.41;4189807;28;20468;-71
2022/03/27 00:19:14;;;;;;;19.08;11.43;;;;;;;8.33;76.87;99978.88;4188403;28;20488;-71
2022/03/27 00:21:14;;;;;;;16.60;11.15;;;;;;;8.34;77.04;99972.22;4189643;28;20306;-71
2022/03/27 00:23:15;;;;;;;16.60;11.23;;;;;;;8.37;77.56;99969.69;4190088;28;20133;-71
2022/03/27 00:25:15;;;;;;;18.00;11.90;;;;;;;8.38;77.16;99971.31;4186950;28;20049;-71
2022/03/27 00:27:15;;;;;;;19.80;12.27;;;;;;;8.37;76.69;99980.72;4186885;28;20513;-71
2022/03/27 00:29:17;;;;;;;16.63;11.43;;;;;;;8.37;75.15;99966.94;4189785;28;20056;-71
2022/03/27 00:31:18;;;;;;;21.20;11.02;;;;;;;8.35;75.88;99969.19;4191726;28;20074;-71
2022/03/27 00:33:19;;;;;;;17.83;10.13;;;;;;;8.35;75.81;99973.88;4191537;28;20037;-71
2022/03/27 00:35:20;;;;;;;15.93;10.95;;;;;;;8.36;76.64;99978.28;4194341;28;20036;-71
2022/03/27 00:37:22;;;;;;;18.52;11.80;;;;;;;8.37;77.57;99972.44;4191987;28;20483;-71
2022/03/27 00:39:22;;;;;;;18.92;13.07;;;;;;;8.32;77.63;99978.09;4192402;28;20040;-71
2022/03/27 00:41:24;;;;;;;18.95;11.63;;;;;;;8.29;77.65;99975.19;4192602;28;20594;-71
2022/03/27 00:43:25;;;;;;;15.68;10.20;;;;;;;8.29;77.27;99976.00;4190211;28;20075;-71
2022/03/27 00:45:26;;;;;;;15.52;10.88;;;;;;;8.27;77.50;99971.91;4193498;28;20538;-71
2022/03/27 00:47:26;;;;;;;20.98;11.18;;;;;;;8.26;77.68;99970.31;4190088;28;20036;-71
2022/03/27 00:49:26;;;;;;;18.65;11.32;;;;;;;8.26;78.21;99971.09;4194457;28;20047;-71
2022/03/27 00:51:27;;;;;;;18.25;11.45;;;;;;;8.29;78.46;99973.22;4190864;28;20036;-71
2022/03/27 00:53:27;;;;;;;16.75;11.38;;;;;;;8.26;78.02;99971.09;4188616;28;20115;-71
2022/03/27 00:55:28;;;;;;;17.08;11.15;;;;;;;8.24;78.00;99973.38;4188045;28;20032;-71
2022/03/27 00:57:30;;;;;;;16.13;10.63;;;;;;;8.32;79.14;99964.28;4185886;28;20236;-71
2022/03/27 00:59:30;;;;;;;18.73;11.00;;;;;;;8.31;79.36;99976.47;4193590;28;20109;-71
2022/03/27 01:01:37;;;;;;;18.55;11.98;;;;;;;8.30;79.36;99968.53;4187783;28;20379;-71
2022/03/27 01:03:38;;;;;;;20.08;11.50;;;;;;;8.34;79.67;99973.03;4189257;28;20046;-71
2022/03/27 01:05:44;;;;;;;17.50;10.68;;;;;;;8.36;79.27;99968.06;4194778;28;20040;-71
2022/03/27 01:07:44;;;;;;;16.77;11.07;;;;;;;8.40;77.91;99976.47;4188007;28;20045;-71
2022/03/27 01:09:45;;;;;;;16.65;11.27;;;;;;;8.40;78.08;99960.75;4194812;28;20369;-71
2022/03/27 01:11:46;;;;;;;20.17;11.70;;;;;;;8.42;78.45;99961.22;4193479;28;20052;-71
2022/03/27 01:13:53;;;;;;;16.60;10.85;;;;;;;8.42;78.57;99955.69;4192889;28;20148;-71
2022/03/27 01:15:57;;;;;;;18.00;10.73;;;;;;;8.46;79.44;99961.38;4190655;28;20052;-71
2022/03/27 01:17:58;;;;;;;19.25;10.75;;;;;;;8.47;79.31;99951.97;4197253;28;20139;-71
2022/03/27 01:20:03;;;;;;;16.63;10.60;;;;;;;8.47;80.64;99953.91;4194243;28;20040;-71
2022/03/27 01:22:04;;;;;;;16.23;10.45;;;;;;;8.50;80.47;99956.81;4196273;28;20068;-71
2022/03/27 01:24:06;;;;;;;15.27;9.90;;;;;;;8.51;80.32;99952.13;4193714;28;20028;-71
2022/03/27 01:26:06;;;;;;;18.00;10.88;;;;;;;8.51;78.60;99952.13;4193104;28;20032;-71
2022/03/27 01:28:10;;;;;;;17.45;11.60;;;;;;;8.47;78.48;99946.47;4196147;28;20042;-71
2022/03/27 01:30:10;;;;;;;15.25;10.77;;;;;;;8.47;77.75;99951.97;4197757;28;20162;-71
2022/03/27 01:32:14;;;;;;;17.40;10.75;;;;;;;8.46;76.90;99944.84;4198330;28;20073;-71
2022/03/27 01:34:15;;;;;;;18.13;10.75;;;;;;;8.45;76.27;99948.75;4197752;28;20286;-71
2022/03/27 01:36:29;;;;;;;17.83;10.70;;;;;;;8.48;76.71;99944.50;4193238;28;20526;-71
2022/03/27 01:38:29;;;;;;;15.57;10.27;;;;;;;8.48;77.23;99944.50;4197714;28;20228;-71
2022/03/27 01:40:30;;;;;;;16.45;10.43;;;;;;;8.48;76.70;99941.75;4200244;28;20075;-71
2022/03/27 01:42:30;;;;;;;20.50;10.00;;;;;;;8.51;76.19;99941.06;4197482;28;20593;-71
2022/03/27 01:44:32;;;;;;;17.67;10.38;;;;;;;8.52;76.75;99948.22;4192032;28;20251;-71
2022/03/27 01:46:35;;;;;;;15.70;9.80;;;;;;;8.54;79.24;99945.97;4196354;28;20036;-71
2022/03/27 01:48:35;;;;;;;17.58;10.32;;;;;;;8.55;80.08;99942.88;4198532;28;20054;-71
2022/03/27 01:50:35;;;;;;;17.08;10.73;;;;;;;8.55;80.87;99945.63;4198532;28;20425;-71
2022/03/27 01:52:37;;;;;;;12.50;9.07;;;;;;;8.61;80.12;99949.03;4194003;28;20098;-71
2022/03/27 01:54:38;;;;;;;14.45;9.65;;;;;;;8.60;79.04;99945.44;4193307;28;20423;-71
2022/03/27 01:56:38;;;;;;;15.38;9.93;;;;;;;8.61;79.31;99947.06;4193184;28;20272;-71
2022/03/27 01:58:39;;;;;;;15.60;9.23;;;;;;;8.62;78.29;99951.44;4199655;28;20040;-71
2022/03/27 02:00:42;;;;;;;15.25;9.35;;;;;;;8.63;78.08;99952.25;4203758;28;20396;-71
2022/03/27 02:02:43;;;;;;;15.27;9.70;;;;;;;8.62;77.99;99947.88;4195930;28;20545;-71
2022/03/27 02:04:43;;;;;;;15.52;9.50;;;;;;;8.61;78.60;99951.78;4196375;28;20229;-71
2022/03/27 02:06:43;;;;;;;13.82;9.40;;;;;;;8.59;79.06;99945.75;4193161;28;20063;-71
2022/03/27 02:08:44;;;;;;;18.40;9.80;;;;;;;8.59;78.69;99952.09;4197874;28;20119;-71
2022/03/27 02:10:44;;;;;;;15.50;10.15;;;;;;;8.55;77.69;99950.34;4197004;28;20122;-71
2022/03/27 02:12:45;;;;;;;15.82;9.82;;;;;;;8.52;77.81;99946.25;4194569;28;20424;-71
2022/03/27 02:14:45;;;;;;;15.10;9.73;;;;;;;8.52;78.32;99951.78;4197977;28;20047;-71
2022/03/27 02:16:46;;;;;;;16.35;10.45;;;;;;;8.53;78.12;99950.66;4196808;28;20082;-71
2022/03/27 02:18:46;;;;;;;14.13;9.50;;;;;;;8.52;78.42;99960.06;4197026;28;20123;-71
2022/03/27 02:20:48;;;;;;;14.95;9.20;;;;;;;8.53;78.45;99958.13;4192313;28;20028;-71
2022/03/27 02:22:48;;;;;;;15.52;9.77;;;;;;;8.52;78.80;99956.50;4197643;28;20055;-71
2022/03/27 02:24:48;;;;;;;16.25;9.13;;;;;;;8.52;79.93;99960.06;4197106;28;20079;-71
2022/03/27 02:26:50;;;;;;;18.52;10.52;;;;;;;8.52;80.79;99967.53;4193561;28;20449;-71
2022/03/27 02:28:50;;;;;;;18.58;9.85;;;;;;;8.54;83.11;99954.22;4196706;28;20365;-71
2022/03/27 02:30:53;;;;;;;17.02;10.00;;;;;;;8.55;83.13;99953.91;4194444;28;20047;-71
2022/03/27 02:32:53;;;;;;;19.50;10.60;;;;;;;8.55;83.33;99950.34;4196214;28;20036;-71
2022/03/27 02:34:54;;;;;;;16.60;9.45;;;;;;;8.58;84.54;99952.41;4197559;28;20315;-71
2022/03/27 02:36:54;;;;;;;15.63;9.57;;;;;;;8.58;84.91;99957.94;4192914;28;20358;-71
2022/03/27 02:38:54;;;;;;;14.63;9.77;;;;;;;8.59;84.70;99954.03;4201865;28;20036;-71
2022/03/27 02:40:55;;;;;;;13.77;8.77;;;;;;;8.60;83.78;99952.91;4192685;28;20052;-71
2022/03/27 02:42:56;;;;;;;14.98;9.50;;;;;;;8.59;83.13;99954.84;4193946;28;20087;-71
2022/03/27 02:44:56;;;;;;;15.55;9.43;;;;;;;8.60;84.52;99950.13;4192046;28;20364;-71
2022/03/27 02:46:57;;;;;;;12.73;9.05;;;;;;;8.58;84.06;99950.47;4188439;28;20043;-71
2022/03/27 02:48:57;;;;;;;13.38;8.63;;;;;;;8.62;83.64;99950.63;4199087;28;20057;-71
2022/03/27 02:50:58;;;;;;;13.68;8.73;;;;;;;8.60;81.70;99955.66;4196049;28;20352;-71
2022/03/27 02:52:59;;;;;;;13.40;7.97;;;;;;;8.62;82.49;99953.41;4196069;28;20106;-71
2022/03/27 02:54:59;;;;;;;13.02;8.73;;;;;;;8.62;82.16;99948.69;4198310;28;20358;-71
2022/03/27 02:57:00;;;;;;;13.05;8.82;;;;;;;8.62;82.99;99953.41;4195900;28;20095;-71
2022/03/27 02:59:00;;;;;;;12.57;8.77;;;;;;;8.62;82.46;99948.69;4195496;28;20051;-71
2022/03/27 03:01:02;;;;;;;15.02;9.60;;;;;;;8.61;83.56;99951.78;4195610;28;20059;-71
2022/03/27 03:03:02;;;;;;;14.85;8.82;;;;;;;8.62;82.98;99959.72;4194779;28;20109;-71
2022/03/27 03:05:04;;;;;;;13.88;8.05;;;;;;;8.59;81.61;99946.56;4194853;28;20048;-71
2022/03/27 03:07:06;;;;;;;11.30;7.78;;;;;;;8.60;81.48;99945.44;4195872;28;20300;-71
2022/03/27 03:09:06;;;;;;;13.45;8.85;;;;;;;8.60;82.79;99945.44;4190292;28;20331;-71
2022/03/27 03:11:06;;;;;;;14.18;9.25;;;;;;;8.62;84.82;99945.94;4193619;28;20059;-71
2022/03/27 03:13:08;;;;;;;16.25;10.32;;;;;;;8.63;85.63;99949.50;4194562;28;20308;-71
2022/03/27 03:15:09;;;;;;;13.45;8.68;;;;;;;8.62;85.22;99943.19;4198079;28;20136;-71
2022/03/27 03:17:10;;;;;;;11.80;8.02;;;;;;;8.63;85.34;99943.97;4193526;28;20498;-71
2022/03/27 03:19:10;;;;;;;14.18;8.70;;;;;;;8.63;85.04;99958.59;4195022;28;20044;-71
2022/03/27 03:21:11;;;;;;;14.32;9.32;;;;;;;8.63;86.07;99946.75;4190079;28;20045;-71
2022/03/27 03:23:11;;;;;;;13.40;8.50;;;;;;;8.61;84.66;99940.75;4199020;28;20044;-71
2022/03/27 03:25:12;;;;;;;13.73;9.27;;;;;;;8.63;86.65;99944.78;4195509;28;20103;-71
2022/03/27 03:27:13;;;;;;;15.10;10.27;;;;;;;8.64;86.83;99951.91;4199152;28;20097;-71
2022/03/27 03:29:13;;;;;;;14.90;9.55;;;;;;;8.63;86.48;99946.75;4195017;28;20085;-71
2022/03/27 03:31:14;;;;;;;16.15;9.63;;;;;;;8.62;87.44;99948.69;4192884;28;20489;-71
2022/03/27 03:33:14;;;;;;;15.05;8.65;;;;;;;8.61;86.94;99946.25;4193603;28;20077;-71
2022/03/27 03:35:16;;;;;;;16.65;9.00;;;;;;;8.61;87.85;99946.25;4193208;28;20052;-71
2022/03/27 03:37:17;;;;;;;11.95;8.00;;;;;;;8.59;87.27;99948.53;4176415;28;20259;-71
2022/03/27 03:39:18;;;;;;;15.43;9.07;;;;;;;8.57;85.12;99943.34;4195647;28;20036;-71
2022/03/27 03:41:19;;;;;;;16.83;8.88;;;;;;;8.59;85.77;99948.53;4197317;28;20250;-71
2022/03/27 03:43:20;;;;;;;14.63;8.57;;;;;;;8.61;85.25;99947.06;4194935;28;20036;-71
2022/03/27 03:45:20;;;;;;;11.95;8.32;;;;;;;8.60;84.75;99936.34;4196930;28;20048;-71
2022/03/27 03:47:21;;;;;;;13.68;9.05;;;;;;;8.57;84.06;99940.56;4189582;28;20048;-71
2022/03/27 03:49:21;;;;;;;13.65;8.68;;;;;;;8.56;84.89;99936.19;4194544;28;20033;-71
2022/03/27 03:51:21;;;;;;;12.95;8.32;;;;;;;8.54;83.76;99949.53;4194392;28;20152;-71
2022/03/27 03:53:22;;;;;;;10.15;7.40;;;;;;;8.55;82.74;99944.81;4194034;28;20040;-71
2022/03/27 03:55:22;;;;;;;11.57;7.63;;;;;;;8.56;81.40;99938.16;4194631;28;20044;-71
2022/03/27 03:57:23;;;;;;;10.35;7.28;;;;;;;8.56;82.81;99935.41;4193403;28;20431;-71
2022/03/27 03:59:23;;;;;;;15.60;8.40;;;;;;;8.57;82.96;99937.00;4196956;28;20135;-71
2022/03/27 04:01:24;;;;;;;12.98;8.35;;;;;;;8.54;82.97;99937.69;4198612;28;20075;-71
2022/03/27 04:03:24;;;;;;;11.88;8.00;;;;;;;8.53;84.09;99936.06;4195774;28;20076;-71
2022/03/27 04:05:25;;;;;;;12.43;8.52;;;;;;;8.51;84.64;99936.38;4189170;28;20037;-71
2022/03/27 04:07:25;;;;;;;11.90;7.50;;;;;;;8.53;85.96;99938.81;4189736;28;20393;-71
2022/03/27 04:09:27;;;;;;;13.40;8.13;;;;;;;8.52;85.53;99940.75;4195940;28;20461;-71
2022/03/27 04:11:27;;;;;;;14.77;8.95;;;;;;;8.52;86.76;99949.03;4192735;28;20083;-71
2022/03/27 04:13:27;;;;;;;15.55;8.60;;;;;;;8.51;87.21;99950.16;4195806;28;20481;-71
2022/03/27 04:15:28;;;;;;;13.52;8.85;;;;;;;8.50;87.62;99942.22;4193995;28;20045;-71
2022/03/27 04:17:28;;;;;;;15.52;9.70;;;;;;;8.49;89.00;99941.41;4192920;28;20036;-71
2022/03/27 04:19:29;;;;;;;12.60;8.45;;;;;;;8.47;88.48;99940.13;4193692;28;20708;-71
2022/03/27 04:21:31;;;;;;;14.98;8.93;;;;;;;8.47;89.30;99948.41;4193627;28;20056;-71
2022/03/27 04:23:31;;;;;;;14.88;8.98;;;;;;;8.46;88.46;99947.59;4193985;28;20040;-71
2022/03/27 04:25:31;;;;;;;14.25;9.43;;;;;;;8.43;87.53;99946.28;4196798;28;20165;-71
2022/03/27 04:27:32;;;;;;;15.35;8.55;;;;;;;8.47;85.22;99948.41;4194002;28;20177;-71
2022/03/27 04:29:32;;;;;;;12.52;8.70;;;;;;;8.44;84.53;99947.94;4191911;28;20043;-71
2022/03/27 04:31:32;;;;;;;11.27;7.47;;;;;;;8.43;84.25;99945.47;4196836;28;20048;-71
2022/03/27 04:33:33;;;;;;;12.88;8.75;;;;;;;8.43;86.21;99945.47;4192603;28;20485;-71
2022/03/27 04:35:34;;;;;;;11.07;7.85;;;;;;;8.44;87.01;99939.66;4193356;28;20048;-71
2022/03/27 04:37:42;;;;;;;14.98;9.05;;;;;;;8.47;88.27;99949.22;4193712;28;20542;-71
2022/03/27 04:39:43;;;;;;;13.27;8.98;;;;;;;8.48;89.45;99947.25;4197030;28;20078;-71
2022/03/27 04:41:46;;;;;;;13.93;9.38;;;;;;;8.44;89.59;99941.59;4193905;28;20725;-71
2022/03/27 04:43:48;;;;;;;13.90;8.30;;;;;;;8.46;88.92;99957.81;4194676;28;20338;-71
2022/03/27 04:45:50;;;;;;;12.18;8.38;;;;;;;8.44;86.07;99950.69;4194667;28;20053;-71
2022/03/27 04:47:50;;;;;;;14.32;8.13;;;;;;;8.45;83.58;99954.25;4191958;28;20045;-71
2022/03/27 04:49:51;;;;;;;13.50;7.88;;;;;;;8.46;84.62;99949.53;4194598;28;20370;-71
2022/03/27 04:51:51;;;;;;;13.68;8.57;;;;;;;8.45;85.75;99954.25;4193201;28;20044;-71
2022/03/27 04:53:51;;;;;;;13.45;9.10;;;;;;;8.44;87.35;99953.44;4194442;28;20457;-71
2022/03/27 04:55:52;;;;;;;15.63;8.93;;;;;;;8.48;88.95;99950.84;4193888;28;20051;-71
2022/03/27 04:57:53;;;;;;;16.63;9.88;;;;;;;8.44;88.95;99947.94;4194379;28;20055;-71
2022/03/27 04:59:53;;;;;;;13.35;8.75;;;;;;;8.44;89.12;99944.38;4194285;28;20485;-71
2022/03/27 05:01:54;;;;;;;15.23;9.68;;;;;;;8.40;88.13;99946.94;4190570;28;20118;-71
2022/03/27 05:03:54;;;;;;;16.30;9.45;;;;;;;8.37;89.56;99955.91;4195811;28;20047;-71
2022/03/27 05:05:54;;;;;;;18.25;9.85;;;;;;;8.38;89.48;99948.44;4192086;28;20032;-71
2022/03/27 05:07:56;;;;;;;15.43;9.43;;;;;;;8.38;88.89;99956.69;4192478;28;20072;-71
2022/03/27 05:09:58;;;;;;;13.63;9.10;;;;;;;8.36;88.14;99950.72;4193339;28;20478;-71
2022/03/27 05:11:58;;;;;;;13.25;8.25;;;;;;;8.35;87.21;99941.59;4192610;28;20051;-71
2022/03/27 05:13:59;;;;;;;13.35;8.57;;;;;;;8.39;85.80;99953.59;4195254;28;20044;-71
2022/03/27 05:15:59;;;;;;;13.88;8.63;;;;;;;8.41;84.22;99956.03;4189642;28;20194;-71
2022/03/27 05:18:00;;;;;;;14.40;8.95;;;;;;;8.42;84.39;99950.19;4192790;28;20404;-71
2022/03/27 05:20:03;;;;;;;16.77;9.27;;;;;;;8.41;85.84;99956.84;4194961;28;20451;-71
2022/03/27 05:22:04;;;;;;;12.40;8.00;;;;;;;8.40;86.95;99954.41;4191110;28;20094;-71
2022/03/27 05:24:08;;;;;;;16.17;9.90;;;;;;;8.39;88.40;99961.06;4187003;28;20414;-71
2022/03/27 05:26:09;;;;;;;13.38;9.52;;;;;;;8.38;87.48;99963.03;4190876;28;20090;-71
2022/03/27 05:28:10;;;;;;;16.20;9.60;;;;;;;8.39;85.13;99961.88;4188666;28;20058;-71
2022/03/27 05:30:11;;;;;;;14.07;8.38;;;;;;;8.38;84.53;99959.47;4192418;28;20099;-71
2022/03/27 05:32:11;;;;;;;14.02;8.80;;;;;;;8.38;85.30;99967.72;4194440;28;20028;-71
2022/03/27 05:34:11;;;;;;;12.93;9.00;;;;;;;8.40;85.05;99968.22;4192906;28;20056;-71
2022/03/27 05:36:13;;;;;;;13.90;9.05;;;;;;;8.40;85.47;99963.50;4189451;28;20451;-71
2022/03/27 05:38:13;;;;;;;12.80;8.98;;;;;;;8.41;86.92;99970.63;4193465;28;20505;-71
2022/03/27 05:40:18;;;;;;;13.80;8.73;;;;;;;8.40;88.27;99968.22;4197380;28;20040;-71
2022/03/27 05:42:18;;;;;;;17.85;8.85;;;;;;;8.43;88.49;99973.06;4191620;28;20089;-71
2022/03/27 05:44:18;;;;;;;18.30;9.35;;;;;;;8.40;88.46;99969.00;4193145;28;20028;-71
2022/03/27 05:46:20;;;;;;;17.13;9.70;;;;;;;8.41;88.06;99965.13;4194602;28;20436;-71
2022/03/27 05:48:21;;;;;;;15.48;9.32;;;;;;;8.44;88.75;99974.72;4192447;28;20056;-71
2022/03/27 05:50:22;;;;;;;17.75;9.57;;;;;;;8.43;89.24;99979.38;4188934;28;20408;-71
2022/03/27 05:52:23;;;;;;;15.73;8.88;;;;;;;8.47;88.38;99984.25;4195717;28;20486;-71
2022/03/27 05:54:23;;;;;;;16.00;9.02;;;;;;;8.48;85.76;99977.59;4191686;28;20041;-71
2022/03/27 05:56:24;;;;;;;14.35;8.27;;;;;;;8.50;83.80;99984.41;4191309;28;20424;-71
2022/03/27 05:58:24;;;;;;;15.48;8.68;;;;;;;8.53;83.39;99980.19;4188883;28;20127;-71
2022/03/27 06:00:26;;;;;;;15.93;9.10;;;;;;;8.53;84.65;99972.75;4193471;28;20040;-71
2022/03/27 06:02:27;;;;;;;13.77;8.15;;;;;;;8.55;86.16;99980.69;4192893;28;20055;-71
2022/03/27 06:04:27;;;;;;;17.73;9.77;;;;;;;8.59;87.11;99984.38;4192142;28;20040;-71
2022/03/27 06:06:29;;;;;;;24.27;9.82;;;;;;;8.62;88.75;99986.50;4194858;28;20052;-71
2022/03/27 06:08:29;;;;;;;18.23;10.10;;;;;;;8.61;90.76;99985.69;4196833;28;20079;-71
2022/03/27 06:10:32;;;;;;;20.55;9.90;;;;;;;8.59;91.09;99996.22;4193241;28;20041;-71
2022/03/27 06:12:32;;;;;;;19.48;10.15;;;;;;;8.60;90.53;99978.53;4198844;28;20657;-71
2022/03/27 06:14:34;;;;;;;16.75;9.25;;;;;;;8.63;90.57;99986.19;4197276;28;20105;-71
2022/03/27 06:16:35;;;;;;;16.70;9.40;;;;;;;8.65;89.60;99981.13;4199768;28;20051;-70
2022/03/27 06:18:36;;;;;;;20.38;10.32;;;;;;;8.66;89.61;99981.94;4192674;28;20751;-71
2022/03/27 06:20:38;;;;;;;15.35;10.15;;;;;;;8.68;90.70;99987.94;4195709;28;20047;-71
2022/03/27 06:22:39;;;;;;;14.65;9.55;;;;;;;8.70;89.69;99983.72;4195762;28;20044;-71
2022/03/27 06:24:40;;;;;;;25.00;11.52;;;;;;;8.75;88.39;99984.66;4192304;28;20048;-71
2022/03/27 06:26:41;;;;;;;19.10;11.20;;;;;;;8.76;88.15;99984.34;4192375;28;20100;-71
2022/03/27 06:28:41;;;;;;;20.48;11.18;;;;;;;8.82;90.59;99983.03;4196374;28;20093;-71
2022/03/27 06:30:41;;;;;;;20.27;11.95;;;;;;;8.86;90.09;99986.75;4134292;28;20490;-71
2022/03/27 06:32:42;;;;;;;30.95;18.10;;;;;;;8.88;89.99;100003.78;4189164;28;20048;-71
2022/03/27 06:34:44;;;;;;;33.92;18.67;;;;;;;8.88;90.27;99989.19;4193271;28;20074;-71
2022/03/27 06:36:45;;;;;;;27.27;15.60;;;;;;;8.90;89.95;99998.75;4195394;28;20958;-71
2022/03/27 06:38:45;;;;;;;22.45;13.65;;;;;;;8.91;90.20;99994.84;4191484;28;20409;-71
2022/03/27 06:40:46;;;;;;;19.40;11.65;;;;;;;8.95;90.66;100004.09;4193919;28;20080;-71
2022/03/27 06:42:47;;;;;;;17.40;11.05;;;;;;;8.96;90.55;99993.88;4194931;28;20086;-71
2022/03/27 06:44:47;;;;;;;17.58;10.35;;;;;;;8.97;89.90;100006.53;4195246;28;20142;-71
2022/03/27 06:46:47;;;;;;;18.58;10.82;;;;;;;8.98;89.94;100000.66;4194128;28;20865;-71
2022/03/27 06:48:49;;;;;;;17.52;11.48;;;;;;;8.99;89.97;99996.75;4196007;28;20040;-71
2022/03/27 06:50:50;;;;;;;18.60;11.20;;;;;;;9.00;89.17;99992.06;4190641;28;20476;-71
2022/03/27 06:52:52;;;;;;;19.85;11.35;;;;;;;9.05;89.86;99993.84;4191910;28;20036;-71
2022/03/27 06:54:53;;;;;;;17.40;11.37;;;;;;;9.06;89.74;99999.03;4193178;28;20372;-71
2022/03/27 06:56:55;;;;;;;17.88;11.30;;;;;;;9.09;89.96;99997.53;4194881;28;20705;-71
2022/03/27 06:58:55;;;;;;;16.10;10.18;;;;;;;9.13;89.46;100004.84;4197163;28;20032;-70
2022/03/27 07:03:14;;;;;;;23.88;12.18;;;;;;;9.21;89.99;100003.19;4193792;28;20052;-70
2022/03/27 07:05:14;;;;;;;21.33;12.68;;;;;;;9.25;88.98;99993.09;4196287;28;20427;-70
2022/03/27 07:07:15;;;;;;;21.88;14.20;;;;;;;9.30;89.27;100003.94;4188736;28;20070;-70
2022/03/27 07:09:18;;;;;;;24.88;13.25;;;;;;;9.33;87.46;99994.19;4192015;28;20044;-70
2022/03/27 07:11:20;;;;;;;24.83;12.80;;;;;;;9.41;87.05;100001.63;4195908;28;20231;-70
2022/03/27 07:13:20;;;;;;;22.00;11.88;;;;;;;9.48;86.11;100001.91;4196141;28;20091;-70
2022/03/27 07:15:21;;;;;;;24.42;14.30;;;;;;;9.54;87.30;99997.81;4198393;28;20605;-70
2022/03/27 07:17:21;;;;;;;26.23;15.10;;;;;;;9.59;87.36;100000.38;4193242;28;20043;-70
2022/03/27 07:19:21;;;;;;;25.55;14.30;;;;;;;9.64;86.54;100000.19;4191482;28;20064;-70
2022/03/27 07:21:22;;;;;;;27.88;13.98;;;;;;;9.67;86.60;100001.47;4191949;28;20079;-70
2022/03/27 07:23:23;;;;;;;26.20;16.30;;;;;;;9.73;86.55;100000.94;4192429;28;20033;-71
2022/03/27 07:25:26;;;;;;;29.83;15.73;;;;;;;9.76;87.43;100002.22;4192967;28;20083;-71
2022/03/27 07:27:26;;;;;;;30.30;15.20;;;;;;;9.78;87.25;99999.94;4196423;28;20694;-70
2022/03/27 07:29:27;;;;;;;23.60;14.40;;;;;;;9.83;86.47;100002.50;4193827;28;20073;-70
2022/03/27 07:31:27;;;;;;;24.15;14.90;;;;;;;9.87;85.97;100000.69;4196417;28;20040;-70
2022/03/27 07:33:28;;;;;;;22.05;13.38;;;;;;;9.92;85.15;99994.13;4191130;28;20043;-70
2022/03/27 07:35:32;;;;;;;23.52;14.00;;;;;;;9.97;84.93;100005.00;4199408;28;20050;-70
2022/03/27 07:37:34;;;;;;;24.73;14.45;;;;;;;10.03;84.68;99998.94;4195091;28;20400;-70
2022/03/27 07:39:35;;;;;;;26.50;14.68;;;;;;;10.07;83.02;99993.53;4192109;28;20033;-70
2022/03/27 07:41:35;;;;;;;24.23;13.27;;;;;;;10.14;81.82;100002.09;4194311;28;20117;-70
2022/03/27 07:43:36;;;;;;;23.40;13.43;;;;;;;10.18;80.79;99999.44;4191426;28;20303;-70
2022/03/27 07:45:37;;;;;;;24.85;14.32;;;;;;;10.23;81.40;99996.53;4188955;28;20063;-70
2022/03/27 07:47:37;;;;;;;21.70;13.52;;;;;;;10.29;81.96;100004.28;4193266;28;20041;-70
2022/03/27 07:49:38;;;;;;;25.13;14.45;;;;;;;10.34;82.98;99998.53;4190118;28;20492;-72
2022/03/27 07:51:39;;;;;;;28.35;15.73;;;;;;;10.40;84.58;99999.13;4192795;28;20132;-72
2022/03/27 07:53:39;;;;;;;26.40;14.70;;;;;;;10.46;82.54;100008.84;4196854;28;20127;-71
2022/03/27 07:55:39;;;;;;;30.05;15.98;;;;;;;10.50;82.66;100006.19;4197143;28;20044;-71
2022/03/27 07:57:41;;;;;;;31.13;16.80;;;;;;;10.56;82.89;100002.06;4194033;28;20484;-71
2022/03/27 07:59:41;;;;;;;26.27;15.23;;;;;;;10.64;82.65;100001.16;4193023;28;20117;-71
2022/03/27 08:01:42;;;;;;;20.90;14.18;;;;;;;10.69;82.18;99993.47;4195261;28;20052;-71
2022/03/27 08:03:42;;;;;;;23.08;14.68;;;;;;;10.71;81.82;100003.38;4194757;28;20047;-71
2022/03/27 08:05:43;;;;;;;28.05;16.33;;;;;;;10.78;82.00;100003.66;4196008;28;20074;-71
2022/03/27 08:07:43;;;;;;;25.20;14.43;;;;;;;10.77;81.31;100005.59;4195497;28;20063;-71
2022/03/27 08:09:43;;;;;;;28.73;15.20;;;;;;;10.81;81.27;99991.88;4190186;28;20715;-71
2022/03/27 08:11:44;;;;;;;23.05;14.93;;;;;;;10.86;81.45;99989.69;4198013;28;20556;-71
2022/03/27 08:13:44;;;;;;;22.70;14.18;;;;;;;10.95;80.55;99993.19;4196948;28;20364;-71
2022/03/27 08:15:45;;;;;;;28.73;15.20;;;;;;;10.95;80.98;99992.38;4191005;28;20040;-71
2022/03/27 08:17:45;;;;;;;23.35;14.43;;;;;;;11.08;80.38;99988.44;4194309;28;20036;-71
2022/03/27 08:19:47;;;;;;;27.20;15.02;;;;;;;11.18;79.65;99987.22;4192398;28;20037;-72
2022/03/27 08:21:47;;;;;;;23.45;13.52;;;;;;;11.31;79.54;99993.53;4190686;28;20469;-72
2022/03/27 08:23:48;;;;;;;23.35;14.63;;;;;;;11.41;79.02;99996.66;4199993;28;20028;-72
2022/03/27 08:28:08;;;;;;;25.08;14.27;;;;;;;11.65;78.04;100006.13;4194085;28;20047;-72
2022/03/27 08:30:09;;;;;;;23.50;14.85;;;;;;;11.75;78.36;99998.16;4192926;28;20033;-72
2022/03/27 08:32:14;;;;;;;24.98;14.60;;;;;;;11.67;77.27;99993.53;4191828;28;20214;-72
2022/03/27 08:34:14;;;;;;;20.08;13.30;;;;;;;11.68;76.92;100002.66;4191978;28;20759;-72
2022/03/27 08:36:15;;;;;;;25.45;14.48;;;;;;;11.72;76.61;99996.06;4192162;28;20035;-72
2022/03/27 08:38:16;;;;;;;21.23;13.27;;;;;;;11.74;76.62;99993.75;4191499;28;20456;-72
2022/03/27 08:40:18;;;;;;;39.60;21.40;;;;;;;11.78;77.13;99994.66;4192142;28;20033;-72
2022/03/27 08:42:20;;;;;;;27.90;16.25;;;;;;;11.78;76.77;99996.63;4188651;28;20024;-72
2022/03/27 08:44:27;;;;;;;25.85;14.65;;;;;;;11.82;76.48;100003.91;4191890;28;20756;-72
2022/03/27 08:46:29;;;;;;;26.48;16.05;;;;;;;12.03;77.76;100008.53;4191604;28;20137;-72
2022/03/27 08:48:31;;;;;;;22.00;13.20;;;;;;;12.12;76.59;100006.41;4194238;28;20040;-72
2022/03/27 08:50:38;;;;;;;22.47;14.33;;;;;;;12.15;75.62;100008.47;4192264;28;20048;-72
2022/03/27 08:52:52;;;;;;;53.78;29.20;;;;;;;12.18;76.24;100001.44;4191185;28;20036;-72
2022/03/27 08:55:15;;;;;;;23.33;14.65;;;;;;;12.15;75.54;100000.16;4193391;28;20044;-72
2022/03/27 08:57:42;;;;;;;23.92;14.32;;;;;;;12.24;75.55;99997.22;4191962;28;20048;-71
2022/03/27 08:59:43;;;;;;;35.58;19.92;;;;;;;12.29;75.14;100017.22;4189879;28;20040;-72
2022/03/27 09:01:43;;;;;;;74.88;41.10;;;;;;;12.34;75.39;100008.66;4187763;28;20499;-72
2022/03/27 09:03:44;;;;;;;47.50;26.13;;;;;;;12.41;75.43;100002.47;4193034;28;20383;-71
2022/03/27 09:05:44;;;;;;;37.38;20.40;;;;;;;12.50;75.60;100014.25;4197414;28;20080;-71
2022/03/27 09:07:45;;;;;;;32.10;18.40;;;;;;;12.56;73.45;100006.47;4192232;28;20365;-71
2022/03/27 09:09:45;;;;;;;24.80;16.67;;;;;;;12.59;74.07;100003.00;4190952;28;20044;-72
2022/03/27 09:11:45;;;;;;;28.17;16.48;;;;;;;12.56;73.55;100000.91;4193296;28;20373;-72
2022/03/27 09:13:48;;;;;;;25.38;16.60;;;;;;;12.58;73.46;100004.16;4193084;28;20044;-71
2022/03/27 09:15:58;;;;;;;;;;;;;;;12.61;73.70;100003.44;4193675;28;20036;-71
2022/03/27 09:18:09;;;;;;;26.88;15.88;;;;;;;12.58;73.17;100013.31;4190736;28;19912;-71
2022/03/27 09:20:10;;;;;;;23.92;15.25;;;;;;;12.50;73.46;100013.47;4197876;28;20105;-71
2022/03/27 09:22:28;;;;;;;24.30;15.82;;;;;;;12.56;73.86;100009.25;4193619;28;20054;-71
2022/03/27 09:24:35;;;;;;;24.67;15.75;;;;;;;12.60;73.43;100012.94;4189579;28;20056;-71
2022/03/27 09:26:35;;;;;;;21.10;14.70;;;;;;;12.67;73.34;100009.56;4195349;28;20083;-71
2022/03/27 09:28:37;;;;;;;28.05;17.85;;;;;;;12.71;73.08;100011.25;4194225;28;20475;-71
2022/03/27 09:30:37;;;;;;;24.88;15.95;;;;;;;12.75;73.23;100012.19;4193403;28;20101;-71
2022/03/27 09:32:43;;;;;;;23.77;14.85;;;;;;;12.81;72.74;100010.72;4187113;28;20127;-71